Terminal Aerodrome Forecast
Issued by NWS Pocatello, ID

Home | Current Version | Previous Version | Text Only | Print | Product List | Glossary On
Versions: 1 2 3 4 5 6 7 8 9 10 11 12 13 14 15 16
000
FTUS45 KPIH 161735
TAFIDA
TAF
KIDA 161735Z 1618/1718 01008KT 6SM HZ FEW002
     FM170500 VRB03KT P6SM VCFG FEW002
     FM170900 VRB03KT 2SM BR OVC004
     FM171200 VRB03KT 1/2SM FZFG VV002
     FM171700 VRB03KT 4SM HZ SCT002 BKN015=

USA.gov is the U.S. government's official web portal to all federal, state and local government web resources and services.